createdAt,value
2023-04-23T00:00:33.840Z,21.80
2023-04-23T00:03:09.842Z,21.80
2023-04-23T00:05:37.730Z,21.80
2023-04-23T00:08:04.866Z,21.80
2023-04-23T00:10:32.187Z,21.80
2023-04-23T00:12:59.450Z,21.80
2023-04-23T00:15:26.609Z,21.80
2023-04-23T00:17:53.168Z,21.80
2023-04-23T00:20:20.032Z,21.80
2023-04-23T00:22:46.590Z,21.80
2023-04-23T00:27:44.689Z,21.80
2023-04-23T00:35:14.641Z,21.80
2023-04-23T00:37:41.510Z,21.80
2023-04-23T00:40:08.686Z,21.80
2023-04-23T00:42:36.290Z,21.80
2023-04-23T00:45:02.980Z,21.80
2023-04-23T00:47:30.791Z,21.80
2023-04-23T00:49:59.183Z,21.80
2023-04-23T00:52:25.885Z,21.80
2023-04-23T00:54:52.454Z,21.80
2023-04-23T00:57:19.201Z,21.80
2023-04-23T00:59:46.212Z,21.80
2023-04-23T01:02:13.013Z,21.80
2023-04-23T01:12:18.749Z,21.80
2023-04-23T01:14:45.973Z,21.80
2023-04-23T01:17:12.566Z,21.80
2023-04-23T01:19:39.884Z,21.80
2023-04-23T01:22:11.053Z,21.80
2023-04-23T01:37:20.100Z,21.80
2023-04-23T01:42:18.173Z,21.80
2023-04-23T01:44:44.888Z,21.80
2023-04-23T01:47:11.597Z,21.80
2023-04-23T01:49:38.351Z,21.80
2023-04-23T01:57:09.090Z,21.80
2023-04-23T02:02:11.003Z,21.70
2023-04-23T02:04:40.803Z,21.70
2023-04-23T02:07:07.741Z,21.70
2023-04-23T02:09:34.268Z,21.80
2023-04-23T02:12:01.677Z,21.80
2023-04-23T02:14:28.781Z,21.70
2023-04-23T02:16:56.591Z,21.70
2023-04-23T02:19:23.264Z,21.70
2023-04-23T02:21:49.820Z,21.80
2023-04-23T02:24:16.340Z,21.70
2023-04-23T02:26:42.873Z,21.80
2023-04-23T02:29:09.397Z,21.80
2023-04-23T02:31:36.053Z,21.70
2023-04-23T02:34:02.595Z,21.70
2023-04-23T02:39:02.518Z,21.70
2023-04-23T02:41:29.106Z,21.70
2023-04-23T02:43:55.699Z,21.70
2023-04-23T02:46:22.346Z,21.80
2023-04-23T02:48:49.018Z,21.70
2023-04-23T02:51:15.601Z,21.80
2023-04-23T02:53:42.160Z,21.70
2023-04-23T02:56:08.779Z,21.70
2023-04-23T02:58:35.646Z,21.70
2023-04-23T03:01:02.923Z,21.70
2023-04-23T03:03:32.028Z,21.70
2023-04-23T03:06:00.628Z,21.70
2023-04-23T03:08:27.687Z,21.70
2023-04-23T03:10:54.281Z,21.70
2023-04-23T03:15:54.116Z,21.70
2023-04-23T03:18:20.954Z,21.70
2023-04-23T03:20:47.844Z,21.70
2023-04-23T03:23:14.465Z,21.70
2023-04-23T03:25:41.274Z,21.70
2023-04-23T03:28:07.847Z,21.70
2023-04-23T03:30:34.528Z,21.70
2023-04-23T03:33:02.365Z,21.70
2023-04-23T03:35:29.040Z,21.70
2023-04-23T03:37:55.728Z,21.70
2023-04-23T03:42:53.850Z,21.70
2023-04-23T03:45:21.224Z,21.70
2023-04-23T03:57:53.927Z,21.70
2023-04-23T04:00:20.652Z,21.70
2023-04-23T04:02:47.464Z,21.70
2023-04-23T04:07:45.613Z,21.70
2023-04-23T04:10:12.201Z,21.70
2023-04-23T04:12:39.689Z,21.70
2023-04-23T04:15:06.783Z,21.70
2023-04-23T04:17:33.616Z,21.70
2023-04-23T04:20:00.430Z,21.70
2023-04-23T04:22:27.003Z,21.70
2023-04-23T04:24:54.029Z,21.70
2023-04-23T04:27:20.953Z,21.70
2023-04-23T04:32:19.811Z,21.70
2023-04-23T04:37:18.312Z,21.70
2023-04-23T04:39:44.951Z,21.70
2023-04-23T04:42:12.985Z,21.70
2023-04-23T04:44:39.875Z,21.70
2023-04-23T04:47:09.825Z,21.70
2023-04-23T04:49:36.996Z,21.70
2023-04-23T04:52:03.595Z,21.70
2023-04-23T05:04:37.059Z,21.70
2023-04-23T05:17:11.608Z,21.70
2023-04-23T05:19:38.189Z,21.70
2023-04-23T05:24:36.447Z,21.70
2023-04-23T05:27:03.048Z,21.70
2023-04-23T05:37:04.009Z,21.60
2023-04-23T05:39:30.710Z,21.70
2023-04-23T05:41:58.017Z,21.60
2023-04-23T05:44:24.625Z,21.60
2023-04-23T05:46:51.148Z,21.70
2023-04-23T05:49:17.712Z,21.70
2023-04-23T05:51:45.403Z,21.60
2023-04-23T05:54:13.080Z,21.70
2023-04-23T05:56:39.677Z,21.70
2023-04-23T05:59:06.258Z,21.60
2023-04-23T06:01:32.792Z,21.60
2023-04-23T06:04:00.146Z,21.60
2023-04-23T06:06:27.853Z,21.70
2023-04-23T06:08:54.409Z,21.60
2023-04-23T06:11:21.290Z,21.70
2023-04-23T06:13:47.807Z,21.60
2023-04-23T06:16:14.425Z,21.70
2023-04-23T06:18:41.018Z,21.70
2023-04-23T06:21:07.641Z,21.70
2023-04-23T06:23:34.581Z,21.70
2023-04-23T06:26:01.174Z,21.70
2023-04-23T06:28:27.686Z,21.70
2023-04-23T06:30:54.267Z,21.70
2023-04-23T06:33:20.874Z,21.70
2023-04-23T06:40:52.604Z,21.70
2023-04-23T06:48:22.393Z,21.70
2023-04-23T06:50:49.519Z,21.60
2023-04-23T06:53:16.170Z,21.70
2023-04-23T06:55:42.737Z,21.60
2023-04-23T06:58:09.329Z,21.70
2023-04-23T07:00:35.994Z,21.60
2023-04-23T07:03:02.803Z,21.70
2023-04-23T07:05:29.612Z,21.70
2023-04-23T07:10:27.627Z,21.60
2023-04-23T07:17:57.182Z,21.60
2023-04-23T07:25:27.092Z,21.70
2023-04-23T07:38:03.838Z,21.70
2023-04-23T07:43:01.951Z,21.70
2023-04-23T07:50:33.075Z,21.70
2023-04-23T07:52:59.668Z,21.70
2023-04-23T07:57:57.778Z,21.70
2023-04-23T08:05:27.481Z,21.70
2023-04-23T08:12:56.997Z,21.70
2023-04-23T08:15:23.596Z,21.70
2023-04-23T08:17:50.645Z,21.70
2023-04-23T08:20:18.693Z,21.70
2023-04-23T08:22:45.523Z,21.70
2023-04-23T08:25:13.160Z,21.70
2023-04-23T08:30:11.458Z,21.80
2023-04-23T08:32:40.352Z,21.80
2023-04-23T08:35:08.250Z,21.80
2023-04-23T08:37:39.853Z,21.80
2023-04-23T08:40:07.681Z,21.80
2023-04-23T08:42:50.590Z,21.80
2023-04-23T08:45:17.686Z,21.80
2023-04-23T08:47:44.371Z,21.80
2023-04-23T08:50:13.020Z,21.80
2023-04-23T08:52:42.772Z,21.80
2023-04-23T08:55:10.659Z,21.80
2023-04-23T08:57:40.148Z,21.80
2023-04-23T09:00:11.591Z,21.80
2023-04-23T09:02:41.290Z,21.80
2023-04-23T09:05:08.600Z,21.80
2023-04-23T09:07:36.428Z,21.80
2023-04-23T09:10:05.967Z,21.80
2023-04-23T09:12:35.449Z,21.90
2023-04-23T09:15:03.120Z,21.80
2023-04-23T09:17:30.707Z,21.80
2023-04-23T09:19:58.170Z,21.90
2023-04-23T09:22:47.416Z,21.80
2023-04-23T09:25:19.933Z,21.90
2023-04-23T09:27:47.600Z,21.90
2023-04-23T09:30:14.983Z,21.90
2023-04-23T09:32:43.400Z,21.90
2023-04-23T09:35:13.629Z,21.90
2023-04-23T09:45:29.766Z,21.90
2023-04-23T09:50:36.912Z,21.90
2023-04-23T09:53:08.036Z,21.90
2023-04-23T09:55:38.581Z,21.90
2023-04-23T09:58:13.329Z,21.90
2023-04-23T10:00:40.680Z,22.00
2023-04-23T10:03:08.789Z,22.00
2023-04-23T10:11:02.449Z,22.00
2023-04-23T10:13:34.640Z,22.00
2023-04-23T10:16:18.195Z,22.00
2023-04-23T10:21:32.155Z,22.00
2023-04-23T10:24:03.861Z,22.00
2023-04-23T10:26:32.832Z,22.00
2023-04-23T10:29:01.341Z,22.00
2023-04-23T10:34:05.863Z,22.00
2023-04-23T10:36:33.596Z,22.00
2023-04-23T10:39:04.078Z,22.00
2023-04-23T10:41:37.405Z,22.00
2023-04-23T10:44:05.804Z,22.00
2023-04-23T10:46:33.855Z,22.00
2023-04-23T10:49:30.303Z,22.00
2023-04-23T10:57:06.252Z,22.10
2023-04-23T11:04:46.478Z,22.10
2023-04-23T11:07:13.972Z,22.10
2023-04-23T11:09:45.818Z,22.10
2023-04-23T11:12:14.489Z,22.10
2023-04-23T11:14:49.862Z,22.10
2023-04-23T11:20:20.131Z,22.10
2023-04-23T11:22:52.077Z,22.20
2023-04-23T11:25:24.175Z,22.10
2023-04-23T11:30:26.382Z,22.20
2023-04-23T11:38:09.390Z,22.20
2023-04-23T11:40:35.928Z,22.20
2023-04-23T11:43:04.172Z,22.20
2023-04-23T11:45:30.865Z,22.20
2023-04-23T11:47:58.923Z,22.20
2023-04-23T11:50:30.910Z,22.20
2023-04-23T11:52:57.857Z,22.20
2023-04-23T12:00:28.489Z,22.20
2023-04-23T12:02:56.591Z,22.20
2023-04-23T12:21:14.606Z,22.30
2023-04-23T12:23:44.434Z,22.30
2023-04-23T12:26:13.572Z,22.30
2023-04-23T12:31:39.081Z,22.30
2023-04-23T12:34:07.772Z,22.30
2023-04-23T12:44:38.196Z,22.40
2023-04-23T12:49:40.902Z,22.40
2023-04-23T12:52:08.721Z,22.40
2023-04-23T12:57:14.030Z,22.50
2023-04-23T12:59:40.797Z,22.50
2023-04-23T13:02:07.918Z,22.50
2023-04-23T13:04:36.403Z,22.50
2023-04-23T13:07:03.674Z,22.50
2023-04-23T13:09:30.578Z,22.50
2023-04-23T13:11:57.236Z,22.50
2023-04-23T13:14:23.840Z,22.50
2023-04-23T13:16:50.732Z,22.50
2023-04-23T13:19:17.730Z,22.50
2023-04-23T13:21:44.918Z,22.50
2023-04-23T13:24:11.799Z,22.50
2023-04-23T13:26:38.664Z,22.50
2023-04-23T13:29:05.950Z,22.60
2023-04-23T13:34:04.585Z,22.60
2023-04-23T13:36:31.202Z,22.60
2023-04-23T13:38:57.757Z,22.50
2023-04-23T13:41:24.301Z,22.60
2023-04-23T13:43:51.133Z,22.50
2023-04-23T13:46:19.436Z,22.50
2023-04-23T13:48:46.022Z,22.50
2023-04-23T13:51:30.684Z,22.50
2023-04-23T13:53:59.195Z,22.50
2023-04-23T13:56:27.048Z,22.60
2023-04-23T13:59:02.236Z,22.60
2023-04-23T14:01:34.979Z,22.60
2023-04-23T14:04:03.876Z,22.60
2023-04-23T14:06:30.469Z,22.60
2023-04-23T14:14:01.194Z,22.70
2023-04-23T14:18:59.367Z,22.70
2023-04-23T14:24:08.048Z,22.70
2023-04-23T14:29:39.295Z,22.70
2023-04-23T14:32:09.050Z,22.70
2023-04-23T14:34:35.832Z,22.70
2023-04-23T14:37:03.338Z,22.70
2023-04-23T14:39:30.124Z,22.70
2023-04-23T14:41:56.845Z,22.70
2023-04-23T14:44:23.544Z,22.70
2023-04-23T14:46:51.057Z,22.70
2023-04-23T14:51:54.475Z,22.70
2023-04-23T14:54:21.998Z,22.70
2023-04-23T15:01:52.882Z,22.70
2023-04-23T15:04:19.736Z,22.70
2023-04-23T15:11:49.460Z,22.70
2023-04-23T15:14:32.031Z,22.70
2023-04-23T15:16:58.849Z,22.70
2023-04-23T15:19:25.489Z,22.70
2023-04-23T15:21:52.048Z,22.70
2023-04-23T15:24:18.678Z,22.70
2023-04-23T15:26:46.140Z,22.60
2023-04-23T15:29:13.477Z,22.60
2023-04-23T15:31:40.637Z,22.60
2023-04-23T15:34:08.918Z,22.60
2023-04-23T15:36:37.164Z,22.60
2023-04-23T15:39:03.848Z,22.60
2023-04-23T15:41:30.477Z,22.60
2023-04-23T15:43:57.171Z,22.60
2023-04-23T15:46:23.750Z,22.60
2023-04-23T15:48:50.339Z,22.60
2023-04-23T15:51:16.937Z,22.60
2023-04-23T15:53:43.829Z,22.60
2023-04-23T15:56:10.499Z,22.60
2023-04-23T15:58:37.184Z,22.60
2023-04-23T16:01:05.143Z,22.60
2023-04-23T16:03:31.930Z,22.60
2023-04-23T16:05:58.627Z,22.60
2023-04-23T16:08:25.168Z,22.60
2023-04-23T16:10:51.844Z,22.60
2023-04-23T16:13:18.514Z,22.60
2023-04-23T16:15:45.295Z,22.50
2023-04-23T16:18:12.344Z,22.60
2023-04-23T16:20:38.983Z,22.60
2023-04-23T16:23:06.657Z,22.60
2023-04-23T16:25:33.291Z,22.60
2023-04-23T16:27:59.912Z,22.60
2023-04-23T16:32:58.461Z,22.60
2023-04-23T16:48:03.737Z,22.60
2023-04-23T16:53:02.092Z,22.60
2023-04-23T16:55:28.798Z,22.60
2023-04-23T16:57:55.420Z,22.60
2023-04-23T17:00:21.999Z,22.60
2023-04-23T17:02:48.697Z,22.60
2023-04-23T17:05:15.358Z,22.60
2023-04-23T17:07:43.900Z,22.50
2023-04-23T17:10:10.788Z,22.60
2023-04-23T17:12:37.509Z,22.60
2023-04-23T17:15:04.371Z,22.60
2023-04-23T17:17:31.146Z,22.60
2023-04-23T17:19:59.142Z,22.60
2023-04-23T17:27:29.234Z,22.60
2023-04-23T17:29:55.816Z,22.60
2023-04-23T17:32:22.789Z,22.60
2023-04-23T17:34:59.354Z,22.60
2023-04-23T17:37:34.251Z,22.60
2023-04-23T17:42:27.314Z,22.60
2023-04-23T17:44:54.197Z,22.60
2023-04-23T17:52:23.796Z,22.60
2023-04-23T17:54:50.375Z,22.60
2023-04-23T17:57:16.953Z,22.60
2023-04-23T17:59:43.786Z,22.60
2023-04-23T18:02:11.219Z,22.60
2023-04-23T18:04:37.876Z,22.60
2023-04-23T18:09:36.083Z,22.60
2023-04-23T18:19:39.253Z,22.60
2023-04-23T18:22:05.888Z,22.50
2023-04-23T18:27:04.161Z,22.60
2023-04-23T18:29:31.099Z,22.60
2023-04-23T18:31:57.778Z,22.60
2023-04-23T18:34:24.692Z,22.60
2023-04-23T18:36:55.164Z,22.60
2023-04-23T18:39:22.371Z,22.60
2023-04-23T18:41:49.333Z,22.60
2023-04-23T18:46:48.756Z,22.60
2023-04-23T18:49:37.813Z,22.60
2023-04-23T18:52:04.522Z,22.60
2023-04-23T18:54:31.394Z,22.50
2023-04-23T18:59:33.933Z,22.50
2023-04-23T19:02:00.852Z,22.50
2023-04-23T19:04:27.757Z,22.50
2023-04-23T19:09:26.610Z,22.60
2023-04-23T19:19:31.839Z,22.60
2023-04-23T19:21:58.392Z,22.50
2023-04-23T19:24:24.916Z,22.50
2023-04-23T19:26:51.472Z,22.60
2023-04-23T19:29:18.059Z,22.50
2023-04-23T19:31:44.647Z,22.50
2023-04-23T19:34:13.133Z,22.50
2023-04-23T19:39:11.182Z,22.50
2023-04-23T19:44:09.220Z,22.50
2023-04-23T19:49:07.249Z,22.50
2023-04-23T19:59:13.733Z,22.50
2023-04-23T20:01:40.758Z,22.50
2023-04-23T20:09:18.010Z,22.50
2023-04-23T20:16:49.141Z,22.50
2023-04-23T20:19:17.101Z,22.50
2023-04-23T20:21:43.737Z,22.50
2023-04-23T20:24:11.149Z,22.50
2023-04-23T20:26:38.896Z,22.50
2023-04-23T20:29:05.603Z,22.50
2023-04-23T20:31:33.253Z,22.50
2023-04-23T20:34:01.007Z,22.50
2023-04-23T20:39:08.164Z,22.50
2023-04-23T20:41:36.566Z,22.50
2023-04-23T20:44:05.006Z,22.50
2023-04-23T20:51:35.956Z,22.50
2023-04-23T20:54:02.683Z,22.50
2023-04-23T20:56:30.364Z,22.50
2023-04-23T20:58:57.760Z,22.50
2023-04-23T21:01:25.552Z,22.50
2023-04-23T21:03:53.377Z,22.50
2023-04-23T21:06:21.473Z,22.50
2023-04-23T21:08:48.504Z,22.50
2023-04-23T21:16:20.524Z,22.50
2023-04-23T21:18:47.093Z,22.40
2023-04-23T21:21:13.612Z,22.50
2023-04-23T21:23:40.272Z,22.40
2023-04-23T21:26:08.445Z,22.50
2023-04-23T21:28:36.317Z,22.40
2023-04-23T21:31:11.033Z,22.50
2023-04-23T21:33:37.672Z,22.50
2023-04-23T21:36:04.545Z,22.40
2023-04-23T21:38:33.189Z,22.40
2023-04-23T21:41:01.207Z,22.40
2023-04-23T21:46:00.399Z,22.40
2023-04-23T21:56:01.772Z,22.40
2023-04-23T21:58:31.073Z,22.40
2023-04-23T22:00:57.712Z,22.40
2023-04-23T22:03:29.850Z,22.40
2023-04-23T22:06:05.058Z,22.40
2023-04-23T22:08:32.764Z,22.40
2023-04-23T22:10:59.392Z,22.40
2023-04-23T22:13:26.087Z,22.40
2023-04-23T22:15:52.662Z,22.40
2023-04-23T22:18:19.303Z,22.40
2023-04-23T22:20:49.284Z,22.40
2023-04-23T22:23:15.833Z,22.40
2023-04-23T22:25:42.775Z,22.40
2023-04-23T22:28:09.345Z,22.40
2023-04-23T22:30:36.285Z,22.40
2023-04-23T22:38:08.185Z,22.40
2023-04-23T22:40:34.827Z,22.40
2023-04-23T22:48:04.548Z,22.40
2023-04-23T22:50:31.109Z,22.40
2023-04-23T22:52:58.105Z,22.40
2023-04-23T22:55:24.794Z,22.40
2023-04-23T22:57:51.402Z,22.40
2023-04-23T23:00:18.077Z,22.30
2023-04-23T23:02:44.737Z,22.40
2023-04-23T23:05:11.359Z,22.30
2023-04-23T23:07:38.499Z,22.30
2023-04-23T23:10:08.545Z,22.40
2023-04-23T23:12:36.573Z,22.30
2023-04-23T23:15:03.652Z,22.30
2023-04-23T23:17:30.283Z,22.30
2023-04-23T23:19:56.927Z,22.30
2023-04-23T23:22:23.517Z,22.30
2023-04-23T23:24:50.121Z,22.30
2023-04-23T23:27:16.640Z,22.40
2023-04-23T23:37:18.215Z,22.30
2023-04-23T23:39:45.523Z,22.30
2023-04-23T23:42:12.097Z,22.30
2023-04-23T23:47:10.255Z,22.30
2023-04-23T23:49:36.900Z,22.30
2023-04-23T23:52:03.787Z,22.30
